In Rescue
 
Open Full Screen Window  High Contrast Mode
July 13, 2020 10:33 PM EDT
Weather Information
Wind Direction
  ---
Wind Speed
  00 kt (0 mph)
Wind Gust
  00 kt (0 mph)
Altimeter
29.98 in
Visibility
10 SM
Temperature
16° C
61° F
Dewpoint
14° C
57° F
Humidity
88%
Sky Condition
Clear
VFR

METAR KSLH 140233Z AUTO 00000KT 10SM CLR 16/14 A2998 RMK AO2 T01640136

FAA Disclaimer: The data displayed is for advisory purposes only and is not to be used for flight planning or operations.